sensor_id;sensor_type;location;lat;lon;timestamp;P1;durP1;ratioP1;P2;durP2;ratioP2
62535;SDS011;63050;47.514;18.920;2023-05-08T00:03:15;3.40;;;3.10;;
62535;SDS011;63050;47.514;18.920;2023-05-08T00:08:17;3.70;;;3.20;;
62535;SDS011;63050;47.514;18.920;2023-05-08T00:13:19;4.00;;;3.20;;
62535;SDS011;63050;47.514;18.920;2023-05-08T00:18:21;5.50;;;3.40;;
62535;SDS011;63050;47.514;18.920;2023-05-08T00:23:22;4.20;;;3.20;;
62535;SDS011;63050;47.514;18.920;2023-05-08T00:28:24;3.30;;;3.00;;
62535;SDS011;63050;47.514;18.920;2023-05-08T00:33:26;4.10;;;2.90;;
62535;SDS011;63050;47.514;18.920;2023-05-08T00:38:34;4.20;;;3.20;;
62535;SDS011;63050;47.514;18.920;2023-05-08T00:43:36;3.50;;;3.00;;
62535;SDS011;63050;47.514;18.920;2023-05-08T00:48:39;4.40;;;3.30;;
62535;SDS011;63050;47.514;18.920;2023-05-08T00:53:41;3.80;;;3.30;;
62535;SDS011;63050;47.514;18.920;2023-05-08T00:58:44;4.30;;;3.00;;
62535;SDS011;63050;47.514;18.920;2023-05-08T01:03:46;3.50;;;2.90;;
62535;SDS011;63050;47.514;18.920;2023-05-08T01:08:47;3.90;;;3.00;;
62535;SDS011;63050;47.514;18.920;2023-05-08T01:30:15;3.40;;;2.70;;
62535;SDS011;63050;47.514;18.920;2023-05-08T01:35:46;4.40;;;3.60;;
62535;SDS011;63050;47.514;18.920;2023-05-08T01:40:54;4.20;;;3.30;;
62535;SDS011;63050;47.514;18.920;2023-05-08T01:46:00;4.00;;;3.60;;
62535;SDS011;63050;47.514;18.920;2023-05-08T01:51:06;4.60;;;3.60;;
62535;SDS011;63050;47.514;18.920;2023-05-08T01:56:14;4.40;;;3.80;;
62535;SDS011;63050;47.514;18.920;2023-05-08T02:01:17;4.90;;;3.50;;
62535;SDS011;63050;47.514;18.920;2023-05-08T02:06:22;3.70;;;3.30;;
62535;SDS011;63050;47.514;18.920;2023-05-08T02:11:24;5.00;;;3.20;;
62535;SDS011;63050;47.514;18.920;2023-05-08T02:16:27;4.20;;;3.50;;
62535;SDS011;63050;47.514;18.920;2023-05-08T02:21:29;4.20;;;3.50;;
62535;SDS011;63050;47.514;18.920;2023-05-08T02:26:31;4.00;;;3.60;;
62535;SDS011;63050;47.514;18.920;2023-05-08T02:31:34;3.60;;;3.30;;
62535;SDS011;63050;47.514;18.920;2023-05-08T02:36:36;3.40;;;3.00;;
62535;SDS011;63050;47.514;18.920;2023-05-08T02:41:38;3.70;;;3.10;;
62535;SDS011;63050;47.514;18.920;2023-05-08T02:51:53;4.30;;;3.40;;
62535;SDS011;63050;47.514;18.920;2023-05-08T02:56:59;3.90;;;3.10;;
62535;SDS011;63050;47.514;18.920;2023-05-08T03:07:24;3.70;;;3.40;;
62535;SDS011;63050;47.514;18.920;2023-05-08T03:12:27;4.30;;;3.30;;
62535;SDS011;63050;47.514;18.920;2023-05-08T03:17:30;4.10;;;3.70;;
62535;SDS011;63050;47.514;18.920;2023-05-08T03:22:33;4.90;;;3.30;;
62535;SDS011;63050;47.514;18.920;2023-05-08T03:27:36;5.30;;;3.20;;
62535;SDS011;63050;47.514;18.920;2023-05-08T03:32:37;4.70;;;3.30;;
62535;SDS011;63050;47.514;18.920;2023-05-08T03:37:39;4.10;;;3.50;;
62535;SDS011;63050;47.514;18.920;2023-05-08T03:42:43;4.00;;;3.60;;
62535;SDS011;63050;47.514;18.920;2023-05-08T03:47:45;5.30;;;3.80;;
62535;SDS011;63050;47.514;18.920;2023-05-08T03:52:47;4.50;;;2.90;;
62535;SDS011;63050;47.514;18.920;2023-05-08T04:08:40;10.30;;;3.50;;
62535;SDS011;63050;47.514;18.920;2023-05-08T04:13:52;6.10;;;4.00;;
62535;SDS011;63050;47.514;18.920;2023-05-08T04:19:42;5.10;;;3.90;;
62535;SDS011;63050;47.514;18.920;2023-05-08T04:24:24;4.90;;;3.30;;
62535;SDS011;63050;47.514;18.920;2023-05-08T04:29:27;5.30;;;4.10;;
62535;SDS011;63050;47.514;18.920;2023-05-08T04:34:30;4.90;;;4.10;;
62535;SDS011;63050;47.514;18.920;2023-05-08T04:39:32;7.70;;;3.70;;
62535;SDS011;63050;47.514;18.920;2023-05-08T04:44:33;9.00;;;4.50;;
62535;SDS011;63050;47.514;18.920;2023-05-08T04:49:35;5.40;;;3.70;;
62535;SDS011;63050;47.514;18.920;2023-05-08T04:54:38;5.40;;;3.90;;
62535;SDS011;63050;47.514;18.920;2023-05-08T04:59:39;6.20;;;3.90;;
62535;SDS011;63050;47.514;18.920;2023-05-08T05:04:41;5.10;;;3.60;;
62535;SDS011;63050;47.514;18.920;2023-05-08T05:09:43;4.50;;;3.50;;
62535;SDS011;63050;47.514;18.920;2023-05-08T05:14:44;5.40;;;3.30;;
62535;SDS011;63050;47.514;18.920;2023-05-08T05:19:46;5.60;;;3.90;;
62535;SDS011;63050;47.514;18.920;2023-05-08T05:24:47;3.30;;;2.80;;
62535;SDS011;63050;47.514;18.920;2023-05-08T05:29:49;8.40;;;3.40;;
62535;SDS011;63050;47.514;18.920;2023-05-08T05:34:50;4.20;;;3.00;;
62535;SDS011;63050;47.514;18.920;2023-05-08T05:39:53;3.70;;;2.90;;
62535;SDS011;63050;47.514;18.920;2023-05-08T05:44:55;4.40;;;3.10;;
62535;SDS011;63050;47.514;18.920;2023-05-08T05:49:57;6.50;;;2.90;;
62535;SDS011;63050;47.514;18.920;2023-05-08T05:54:59;2.50;;;1.90;;
62535;SDS011;63050;47.514;18.920;2023-05-08T06:00:02;5.80;;;2.40;;
62535;SDS011;63050;47.514;18.920;2023-05-08T06:05:15;4.20;;;2.20;;
62535;SDS011;63050;47.514;18.920;2023-05-08T06:10:16;3.20;;;2.30;;
62535;SDS011;63050;47.514;18.920;2023-05-08T06:15:18;3.00;;;1.60;;
62535;SDS011;63050;47.514;18.920;2023-05-08T06:20:22;2.60;;;1.40;;
62535;SDS011;63050;47.514;18.920;2023-05-08T06:25:23;5.10;;;2.10;;
62535;SDS011;63050;47.514;18.920;2023-05-08T06:30:25;6.60;;;1.70;;
62535;SDS011;63050;47.514;18.920;2023-05-08T06:35:27;3.00;;;1.50;;
62535;SDS011;63050;47.514;18.920;2023-05-08T06:40:28;4.00;;;1.60;;
62535;SDS011;63050;47.514;18.920;2023-05-08T06:45:31;2.00;;;1.20;;
62535;SDS011;63050;47.514;18.920;2023-05-08T06:50:33;2.40;;;1.40;;
62535;SDS011;63050;47.514;18.920;2023-05-08T06:55:37;1.80;;;1.40;;
62535;SDS011;63050;47.514;18.920;2023-05-08T07:00:42;3.10;;;1.50;;
62535;SDS011;63050;47.514;18.920;2023-05-08T07:05:43;1.80;;;1.20;;
62535;SDS011;63050;47.514;18.920;2023-05-08T07:10:45;2.70;;;1.30;;
62535;SDS011;63050;47.514;18.920;2023-05-08T07:15:46;1.80;;;1.10;;
62535;SDS011;63050;47.514;18.920;2023-05-08T07:20:48;7.80;;;1.50;;
62535;SDS011;63050;47.514;18.920;2023-05-08T07:25:50;3.00;;;1.40;;
62535;SDS011;63050;47.514;18.920;2023-05-08T07:30:52;2.10;;;1.30;;
62535;SDS011;63050;47.514;18.920;2023-05-08T07:35:54;1.80;;;1.10;;
62535;SDS011;63050;47.514;18.920;2023-05-08T07:40:56;7.70;;;1.60;;
62535;SDS011;63050;47.514;18.920;2023-05-08T07:45:57;4.30;;;1.90;;
62535;SDS011;63050;47.514;18.920;2023-05-08T07:50:59;4.00;;;1.70;;
62535;SDS011;63050;47.514;18.920;2023-05-08T07:56:00;2.30;;;1.30;;
62535;SDS011;63050;47.514;18.920;2023-05-08T08:01:02;4.30;;;1.20;;
62535;SDS011;63050;47.514;18.920;2023-05-08T08:06:03;2.20;;;1.40;;
62535;SDS011;63050;47.514;18.920;2023-05-08T08:11:05;2.40;;;1.10;;
62535;SDS011;63050;47.514;18.920;2023-05-08T08:16:07;4.10;;;1.20;;
62535;SDS011;63050;47.514;18.920;2023-05-08T08:21:08;2.30;;;1.20;;
62535;SDS011;63050;47.514;18.920;2023-05-08T08:26:10;2.90;;;1.00;;
62535;SDS011;63050;47.514;18.920;2023-05-08T08:31:12;2.30;;;1.10;;
62535;SDS011;63050;47.514;18.920;2023-05-08T08:36:13;2.00;;;0.90;;
62535;SDS011;63050;47.514;18.920;2023-05-08T08:41:16;2.10;;;1.10;;
62535;SDS011;63050;47.514;18.920;2023-05-08T08:46:18;9.10;;;1.50;;
62535;SDS011;63050;47.514;18.920;2023-05-08T08:51:26;3.10;;;1.00;;
62535;SDS011;63050;47.514;18.920;2023-05-08T08:56:28;2.40;;;0.90;;
62535;SDS011;63050;47.514;18.920;2023-05-08T09:01:34;6.00;;;1.30;;
62535;SDS011;63050;47.514;18.920;2023-05-08T09:06:36;1.50;;;1.00;;
62535;SDS011;63050;47.514;18.920;2023-05-08T09:11:38;1.60;;;1.00;;
62535;SDS011;63050;47.514;18.920;2023-05-08T09:16:40;2.90;;;0.90;;
62535;SDS011;63050;47.514;18.920;2023-05-08T09:21:42;1.30;;;0.70;;
62535;SDS011;63050;47.514;18.920;2023-05-08T09:26:44;5.20;;;0.90;;
62535;SDS011;63050;47.514;18.920;2023-05-08T09:31:45;1.60;;;0.50;;
62535;SDS011;63050;47.514;18.920;2023-05-08T09:36:50;5.90;;;0.90;;
62535;SDS011;63050;47.514;18.920;2023-05-08T09:41:58;1.00;;;0.60;;
62535;SDS011;63050;47.514;18.920;2023-05-08T09:52:19;2.90;;;0.40;;
62535;SDS011;63050;47.514;18.920;2023-05-08T09:57:21;1.50;;;0.50;;
62535;SDS011;63050;47.514;18.920;2023-05-08T10:02:22;1.70;;;0.50;;
62535;SDS011;63050;47.514;18.920;2023-05-08T10:07:31;0.90;;;0.40;;
62535;SDS011;63050;47.514;18.920;2023-05-08T10:12:34;0.70;;;0.40;;
62535;SDS011;63050;47.514;18.920;2023-05-08T10:17:40;4.20;;;0.70;;
62535;SDS011;63050;47.514;18.920;2023-05-08T10:22:44;1.90;;;0.30;;
62535;SDS011;63050;47.514;18.920;2023-05-08T10:27:56;1.90;;;0.40;;
62535;SDS011;63050;47.514;18.920;2023-05-08T10:32:59;0.70;;;0.40;;
62535;SDS011;63050;47.514;18.920;2023-05-08T10:38:03;1.00;;;0.50;;
62535;SDS011;63050;47.514;18.920;2023-05-08T10:43:05;0.90;;;0.50;;
62535;SDS011;63050;47.514;18.920;2023-05-08T10:58:37;0.70;;;0.40;;
62535;SDS011;63050;47.514;18.920;2023-05-08T11:03:45;0.90;;;0.30;;
62535;SDS011;63050;47.514;18.920;2023-05-08T11:08:48;1.50;;;0.30;;
62535;SDS011;63050;47.514;18.920;2023-05-08T11:19:16;1.70;;;0.50;;
62535;SDS011;63050;47.514;18.920;2023-05-08T11:24:18;0.50;;;0.40;;
62535;SDS011;63050;47.514;18.920;2023-05-08T11:29:33;2.60;;;0.20;;
62535;SDS011;63050;47.514;18.920;2023-05-08T11:39:44;0.80;;;0.40;;
62535;SDS011;63050;47.514;18.920;2023-05-08T11:44:46;2.70;;;0.40;;
62535;SDS011;63050;47.514;18.920;2023-05-08T11:49:47;0.80;;;0.50;;
62535;SDS011;63050;47.514;18.920;2023-05-08T11:54:49;4.30;;;0.60;;
62535;SDS011;63050;47.514;18.920;2023-05-08T11:59:50;1.70;;;0.40;;
62535;SDS011;63050;47.514;18.920;2023-05-08T12:04:51;1.80;;;0.40;;
62535;SDS011;63050;47.514;18.920;2023-05-08T12:09:54;6.90;;;0.70;;
62535;SDS011;63050;47.514;18.920;2023-05-08T12:14:55;4.30;;;0.70;;
62535;SDS011;63050;47.514;18.920;2023-05-08T12:19:56;2.20;;;0.40;;
62535;SDS011;63050;47.514;18.920;2023-05-08T12:25:10;3.40;;;0.40;;
62535;SDS011;63050;47.514;18.920;2023-05-08T12:30:12;0.90;;;0.50;;
62535;SDS011;63050;47.514;18.920;2023-05-08T12:35:14;0.70;;;0.40;;
62535;SDS011;63050;47.514;18.920;2023-05-08T12:40:29;3.30;;;0.60;;
62535;SDS011;63050;47.514;18.920;2023-05-08T12:45:33;0.60;;;0.40;;
62535;SDS011;63050;47.514;18.920;2023-05-08T12:50:37;1.80;;;0.50;;
62535;SDS011;63050;47.514;18.920;2023-05-08T12:55:48;1.40;;;0.40;;
62535;SDS011;63050;47.514;18.920;2023-05-08T13:00:52;3.50;;;0.60;;
62535;SDS011;63050;47.514;18.920;2023-05-08T13:06:04;1.10;;;0.50;;
62535;SDS011;63050;47.514;18.920;2023-05-08T13:11:06;0.60;;;0.50;;
62535;SDS011;63050;47.514;18.920;2023-05-08T13:16:07;0.90;;;0.40;;
62535;SDS011;63050;47.514;18.920;2023-05-08T13:21:09;2.10;;;0.70;;
62535;SDS011;63050;47.514;18.920;2023-05-08T13:26:10;3.40;;;0.60;;
62535;SDS011;63050;47.514;18.920;2023-05-08T13:31:11;1.20;;;0.50;;
62535;SDS011;63050;47.514;18.920;2023-05-08T13:36:12;0.90;;;0.40;;
62535;SDS011;63050;47.514;18.920;2023-05-08T13:41:14;1.30;;;0.70;;
62535;SDS011;63050;47.514;18.920;2023-05-08T13:46:15;5.00;;;0.60;;
62535;SDS011;63050;47.514;18.920;2023-05-08T13:51:16;3.00;;;0.60;;
62535;SDS011;63050;47.514;18.920;2023-05-08T13:56:18;2.30;;;0.60;;
62535;SDS011;63050;47.514;18.920;2023-05-08T14:01:19;3.20;;;0.60;;
62535;SDS011;63050;47.514;18.920;2023-05-08T14:06:21;5.60;;;0.70;;
62535;SDS011;63050;47.514;18.920;2023-05-08T14:11:22;2.20;;;0.50;;
62535;SDS011;63050;47.514;18.920;2023-05-08T14:16:23;2.20;;;0.60;;
62535;SDS011;63050;47.514;18.920;2023-05-08T14:21:25;2.20;;;0.50;;
62535;SDS011;63050;47.514;18.920;2023-05-08T14:26:27;2.20;;;0.60;;
62535;SDS011;63050;47.514;18.920;2023-05-08T14:31:28;1.70;;;0.60;;
62535;SDS011;63050;47.514;18.920;2023-05-08T14:36:30;1.20;;;0.60;;
62535;SDS011;63050;47.514;18.920;2023-05-08T14:41:31;2.40;;;0.50;;
62535;SDS011;63050;47.514;18.920;2023-05-08T14:46:33;4.10;;;0.60;;
62535;SDS011;63050;47.514;18.920;2023-05-08T14:51:35;14.20;;;1.80;;
62535;SDS011;63050;47.514;18.920;2023-05-08T14:56:36;0.80;;;0.50;;
62535;SDS011;63050;47.514;18.920;2023-05-08T15:01:38;2.90;;;0.60;;
62535;SDS011;63050;47.514;18.920;2023-05-08T15:06:42;2.20;;;0.60;;
62535;SDS011;63050;47.514;18.920;2023-05-08T15:11:43;1.60;;;0.70;;
62535;SDS011;63050;47.514;18.920;2023-05-08T15:16:46;2.60;;;1.00;;
62535;SDS011;63050;47.514;18.920;2023-05-08T15:21:47;5.40;;;1.30;;
62535;SDS011;63050;47.514;18.920;2023-05-08T15:26:49;3.50;;;0.70;;
62535;SDS011;63050;47.514;18.920;2023-05-08T15:31:51;1.50;;;0.60;;
62535;SDS011;63050;47.514;18.920;2023-05-08T15:36:52;7.20;;;0.80;;
62535;SDS011;63050;47.514;18.920;2023-05-08T15:41:53;3.90;;;0.90;;
62535;SDS011;63050;47.514;18.920;2023-05-08T15:46:55;2.50;;;0.70;;
62535;SDS011;63050;47.514;18.920;2023-05-08T15:51:56;2.40;;;0.70;;
62535;SDS011;63050;47.514;18.920;2023-05-08T15:56:58;14.10;;;1.10;;
62535;SDS011;63050;47.514;18.920;2023-05-08T16:01:59;0.80;;;0.50;;
62535;SDS011;63050;47.514;18.920;2023-05-08T16:07:00;1.30;;;0.60;;
62535;SDS011;63050;47.514;18.920;2023-05-08T16:12:02;6.60;;;1.10;;
62535;SDS011;63050;47.514;18.920;2023-05-08T16:17:03;3.30;;;0.80;;
62535;SDS011;63050;47.514;18.920;2023-05-08T16:22:04;3.40;;;1.20;;
62535;SDS011;63050;47.514;18.920;2023-05-08T16:27:06;10.70;;;1.30;;
62535;SDS011;63050;47.514;18.920;2023-05-08T16:32:08;8.30;;;1.30;;
62535;SDS011;63050;47.514;18.920;2023-05-08T16:37:09;3.50;;;1.00;;
62535;SDS011;63050;47.514;18.920;2023-05-08T16:42:10;1.60;;;0.70;;
62535;SDS011;63050;47.514;18.920;2023-05-08T16:47:11;2.20;;;1.00;;
62535;SDS011;63050;47.514;18.920;2023-05-08T16:52:12;1.50;;;0.90;;
62535;SDS011;63050;47.514;18.920;2023-05-08T16:57:15;2.10;;;1.10;;
62535;SDS011;63050;47.514;18.920;2023-05-08T17:02:16;3.80;;;1.40;;
62535;SDS011;63050;47.514;18.920;2023-05-08T17:07:18;2.50;;;1.20;;
62535;SDS011;63050;47.514;18.920;2023-05-08T17:12:19;3.70;;;1.10;;
62535;SDS011;63050;47.514;18.920;2023-05-08T17:17:20;5.70;;;1.80;;
62535;SDS011;63050;47.514;18.920;2023-05-08T17:22:21;2.10;;;1.40;;
62535;SDS011;63050;47.514;18.920;2023-05-08T17:27:23;2.90;;;1.30;;
62535;SDS011;63050;47.514;18.920;2023-05-08T17:32:25;7.40;;;1.90;;
62535;SDS011;63050;47.514;18.920;2023-05-08T17:37:26;3.00;;;2.00;;
62535;SDS011;63050;47.514;18.920;2023-05-08T17:42:28;3.00;;;1.50;;
62535;SDS011;63050;47.514;18.920;2023-05-08T17:47:29;3.80;;;1.80;;
62535;SDS011;63050;47.514;18.920;2023-05-08T17:52:31;4.30;;;2.10;;
62535;SDS011;63050;47.514;18.920;2023-05-08T17:57:34;3.80;;;1.70;;
62535;SDS011;63050;47.514;18.920;2023-05-08T18:02:36;4.20;;;2.10;;
62535;SDS011;63050;47.514;18.920;2023-05-08T18:07:37;7.50;;;1.90;;
62535;SDS011;63050;47.514;18.920;2023-05-08T18:12:39;5.30;;;1.90;;
62535;SDS011;63050;47.514;18.920;2023-05-08T18:17:40;3.20;;;1.80;;
62535;SDS011;63050;47.514;18.920;2023-05-08T18:22:41;4.40;;;1.90;;
62535;SDS011;63050;47.514;18.920;2023-05-08T18:27:44;2.40;;;1.80;;
62535;SDS011;63050;47.514;18.920;2023-05-08T18:32:48;4.20;;;2.30;;
62535;SDS011;63050;47.514;18.920;2023-05-08T18:37:50;12.20;;;3.90;;
62535;SDS011;63050;47.514;18.920;2023-05-08T18:42:52;5.80;;;3.50;;
62535;SDS011;63050;47.514;18.920;2023-05-08T18:47:53;4.80;;;3.90;;
62535;SDS011;63050;47.514;18.920;2023-05-08T18:52:57;9.30;;;7.50;;
62535;SDS011;63050;47.514;18.920;2023-05-08T18:57:58;5.40;;;2.70;;
62535;SDS011;63050;47.514;18.920;2023-05-08T19:03:00;4.40;;;2.70;;
62535;SDS011;63050;47.514;18.920;2023-05-08T19:08:02;4.50;;;2.10;;
62535;SDS011;63050;47.514;18.920;2023-05-08T19:13:03;7.70;;;2.80;;
62535;SDS011;63050;47.514;18.920;2023-05-08T19:18:05;5.10;;;2.90;;
62535;SDS011;63050;47.514;18.920;2023-05-08T19:23:07;4.90;;;2.70;;
62535;SDS011;63050;47.514;18.920;2023-05-08T19:28:08;5.80;;;2.70;;
62535;SDS011;63050;47.514;18.920;2023-05-08T19:33:09;6.80;;;3.00;;
62535;SDS011;63050;47.514;18.920;2023-05-08T19:38:10;4.10;;;2.60;;
62535;SDS011;63050;47.514;18.920;2023-05-08T19:43:12;4.90;;;2.80;;
62535;SDS011;63050;47.514;18.920;2023-05-08T19:48:13;5.50;;;2.60;;
62535;SDS011;63050;47.514;18.920;2023-05-08T19:53:14;5.00;;;2.60;;
62535;SDS011;63050;47.514;18.920;2023-05-08T19:58:16;3.30;;;2.70;;
62535;SDS011;63050;47.514;18.920;2023-05-08T20:03:17;3.50;;;2.70;;
62535;SDS011;63050;47.514;18.920;2023-05-08T20:08:19;2.90;;;2.40;;
62535;SDS011;63050;47.514;18.920;2023-05-08T20:13:20;4.10;;;2.60;;
62535;SDS011;63050;47.514;18.920;2023-05-08T20:18:21;4.30;;;2.50;;
62535;SDS011;63050;47.514;18.920;2023-05-08T20:23:23;4.10;;;2.20;;
62535;SDS011;63050;47.514;18.920;2023-05-08T20:28:24;3.40;;;2.40;;
62535;SDS011;63050;47.514;18.920;2023-05-08T20:33:26;4.60;;;2.70;;
62535;SDS011;63050;47.514;18.920;2023-05-08T20:38:27;3.80;;;2.60;;
62535;SDS011;63050;47.514;18.920;2023-05-08T20:43:28;4.10;;;2.80;;
62535;SDS011;63050;47.514;18.920;2023-05-08T20:48:30;5.30;;;2.60;;
62535;SDS011;63050;47.514;18.920;2023-05-08T20:53:31;3.50;;;2.70;;
62535;SDS011;63050;47.514;18.920;2023-05-08T20:58:32;5.90;;;3.00;;
62535;SDS011;63050;47.514;18.920;2023-05-08T21:03:34;3.30;;;2.60;;
62535;SDS011;63050;47.514;18.920;2023-05-08T21:08:35;3.00;;;2.40;;
62535;SDS011;63050;47.514;18.920;2023-05-08T21:13:37;4.90;;;2.80;;
62535;SDS011;63050;47.514;18.920;2023-05-08T21:18:38;3.70;;;2.60;;
62535;SDS011;63050;47.514;18.920;2023-05-08T21:23:40;4.10;;;2.50;;
62535;SDS011;63050;47.514;18.920;2023-05-08T21:28:42;5.40;;;2.90;;
62535;SDS011;63050;47.514;18.920;2023-05-08T21:33:43;4.30;;;2.40;;
62535;SDS011;63050;47.514;18.920;2023-05-08T21:38:45;3.80;;;2.80;;
62535;SDS011;63050;47.514;18.920;2023-05-08T21:43:47;3.60;;;2.40;;
62535;SDS011;63050;47.514;18.920;2023-05-08T21:48:49;4.10;;;2.50;;
62535;SDS011;63050;47.514;18.920;2023-05-08T21:53:51;2.90;;;2.40;;
62535;SDS011;63050;47.514;18.920;2023-05-08T21:58:53;4.10;;;2.70;;
62535;SDS011;63050;47.514;18.920;2023-05-08T22:03:55;4.50;;;2.40;;
62535;SDS011;63050;47.514;18.920;2023-05-08T22:08:57;3.30;;;2.30;;
62535;SDS011;63050;47.514;18.920;2023-05-08T22:13:58;3.60;;;2.90;;
62535;SDS011;63050;47.514;18.920;2023-05-08T22:19:00;3.30;;;2.50;;
62535;SDS011;63050;47.514;18.920;2023-05-08T22:24:02;3.40;;;2.50;;
62535;SDS011;63050;47.514;18.920;2023-05-08T22:29:05;3.50;;;2.80;;
62535;SDS011;63050;47.514;18.920;2023-05-08T22:34:07;3.00;;;2.40;;
62535;SDS011;63050;47.514;18.920;2023-05-08T22:39:08;3.60;;;2.20;;
62535;SDS011;63050;47.514;18.920;2023-05-08T22:44:11;3.80;;;2.60;;
62535;SDS011;63050;47.514;18.920;2023-05-08T22:49:13;3.30;;;2.40;;
62535;SDS011;63050;47.514;18.920;2023-05-08T22:54:14;3.20;;;2.70;;
62535;SDS011;63050;47.514;18.920;2023-05-08T22:59:16;3.20;;;2.50;;
62535;SDS011;63050;47.514;18.920;2023-05-08T23:04:18;4.10;;;2.60;;
62535;SDS011;63050;47.514;18.920;2023-05-08T23:09:19;3.30;;;2.50;;
62535;SDS011;63050;47.514;18.920;2023-05-08T23:14:20;3.10;;;2.50;;
62535;SDS011;63050;47.514;18.920;2023-05-08T23:19:22;3.40;;;2.40;;
62535;SDS011;63050;47.514;18.920;2023-05-08T23:24:24;3.40;;;2.70;;
62535;SDS011;63050;47.514;18.920;2023-05-08T23:29:27;3.50;;;2.60;;
62535;SDS011;63050;47.514;18.920;2023-05-08T23:34:28;3.30;;;2.50;;
62535;SDS011;63050;47.514;18.920;2023-05-08T23:39:31;7.00;;;2.70;;
62535;SDS011;63050;47.514;18.920;2023-05-08T23:44:33;4.00;;;2.70;;
62535;SDS011;63050;47.514;18.920;2023-05-08T23:49:35;7.00;;;2.80;;
62535;SDS011;63050;47.514;18.920;2023-05-08T23:54:37;4.00;;;2.30;;
62535;SDS011;63050;47.514;18.920;2023-05-08T23:59:39;3.50;;;2.70;;
